Time;durP1;ratioP1;P1;durP2;ratioP2;P2;SDS_P1;SDS_P2;PMS_P1;PMS_P2;Temp;Humidity;BMP_temperature;BMP_pressure;BME280_temperature;BME280_humidity;BME280_pressure;Samples;Min_cycle;Max_cycle;Signal;HPM_P1;HPM_P2
2022/10/18 00:00:24;;;;;;;;;;;19.90;93.50;;;;;;5114638;28;19957;-41
2022/10/18 00:02:49;;;;;;;;;;;19.90;93.50;;;;;;5114350;28;19995;-41
2022/10/18 00:05:15;;;;;;;;;;;19.90;93.50;;;;;;5114335;28;19943;-41
2022/10/18 00:07:40;;;;;;;;;;;19.90;93.50;;;;;;5114175;28;19915;-41
2022/10/18 00:10:06;;;;;;;;;;;19.90;93.60;;;;;;5114252;28;20350;-41
2022/10/18 00:12:33;;;;;;;;;;;19.90;93.50;;;;;;5114577;28;19954;-41
2022/10/18 00:14:58;;;;;;;;;;;19.90;93.50;;;;;;5114533;28;19970;-41
2022/10/18 00:17:24;;;;;;;;;;;19.90;93.50;;;;;;5114418;28;19911;-41
2022/10/18 00:19:50;;;;;;;;;;;19.90;93.50;;;;;;5114328;28;19904;-41
2022/10/18 00:22:15;;;;;;;;;;;19.80;93.50;;;;;;5114284;28;19904;-41
2022/10/18 00:24:41;;;;;;;;;;;19.90;93.50;;;;;;5114217;28;19948;-41
2022/10/18 00:27:06;;;;;;;;;;;19.90;93.60;;;;;;5114551;28;19911;-41
2022/10/18 00:29:32;;;;;;;;;;;19.80;93.50;;;;;;5114478;28;19929;-41
2022/10/18 00:31:57;;;;;;;;;;;19.90;93.60;;;;;;5114455;28;19908;-41
2022/10/18 00:34:22;;;;;;;;;;;19.90;93.60;;;;;;5114469;28;20335;-41
2022/10/18 00:36:48;;;;;;;;;;;19.90;93.60;;;;;;5114469;28;19918;-41
2022/10/18 00:39:15;;;;;;;;;;;19.90;93.60;;;;;;5114428;28;19904;-41
2022/10/18 00:41:41;;;;;;;;;;;19.90;93.60;;;;;;5114409;28;20344;-41
2022/10/18 00:44:06;;;;;;;;;;;19.90;93.60;;;;;;5114704;28;19907;-41
2022/10/18 00:46:33;;;;;;;;;;;19.90;93.60;;;;;;5114287;28;19950;-41
2022/10/18 00:49:00;;;;;;;;;;;19.90;93.60;;;;;;5114101;28;19904;-41
2022/10/18 00:51:27;;;;;;;;;;;19.90;93.60;;;;;;5112567;28;20023;-41
2022/10/18 00:53:53;;;;;;;;;;;19.90;93.60;;;;;;5113938;28;19990;-41
2022/10/18 00:56:19;;;;;;;;;;;19.90;93.60;;;;;;5113793;28;20004;-41
2022/10/18 00:58:45;;;;;;;;;;;19.90;93.60;;;;;;5113989;28;19990;-41
2022/10/18 01:01:11;;;;;;;;;;;19.90;93.60;;;;;;5114011;28;19904;-41
2022/10/18 01:03:37;;;;;;;;;;;19.90;93.60;;;;;;5095910;28;19915;-41
2022/10/18 01:06:02;;;;;;;;;;;19.80;93.60;;;;;;5113723;28;19904;-41
2022/10/18 01:08:32;;;;;;;;;;;19.80;93.60;;;;;;5114112;28;19986;-41
2022/10/18 01:11:01;;;;;;;;;;;19.80;93.60;;;;;;5113846;28;19956;-41
2022/10/18 01:13:45;;;;;;;;;;;19.80;93.60;;;;;;5113757;28;19949;-41
2022/10/18 01:16:10;;;;;;;;;;;19.80;93.60;;;;;;5115244;28;19918;-41
2022/10/18 01:18:36;;;;;;;;;;;19.80;93.60;;;;;;5117390;28;20009;-41
2022/10/18 01:21:22;;;;;;;;;;;19.80;93.60;;;;;;5117433;28;19904;-41
2022/10/18 01:24:20;;;;;;;;;;;19.80;93.60;;;;;;5117775;28;19908;-41
2022/10/18 01:26:54;;;;;;;;;;;19.80;93.60;;;;;;5072088;28;19908;-41
2022/10/18 01:29:31;;;;;;;;;;;19.80;93.60;;;;;;5117243;28;19903;-41
2022/10/18 01:32:23;;;;;;;;;;;19.80;93.70;;;;;;5117166;28;19911;-41
2022/10/18 01:34:50;;;;;;;;;;;19.80;93.70;;;;;;5112939;28;19904;-41
2022/10/18 01:37:16;;;;;;;;;;;19.80;93.70;;;;;;5117260;28;19912;-41
2022/10/18 01:39:44;;;;;;;;;;;19.80;93.60;;;;;;5117358;28;19930;-41
2022/10/18 01:42:11;;;;;;;;;;;19.80;93.70;;;;;;5117023;28;19904;-41
2022/10/18 01:44:37;;;;;;;;;;;19.80;93.60;;;;;;5117190;28;20369;-41
2022/10/18 01:47:05;;;;;;;;;;;19.80;93.70;;;;;;5116904;28;19904;-41
2022/10/18 01:49:32;;;;;;;;;;;19.80;93.60;;;;;;5116736;28;19915;-40
2022/10/18 01:51:57;;;;;;;;;;;19.80;93.70;;;;;;5117022;28;19907;-41
2022/10/18 01:54:32;;;;;;;;;;;19.80;93.70;;;;;;5116626;28;19904;-41
2022/10/18 01:57:00;;;;;;;;;;;19.80;93.70;;;;;;5116979;28;19916;-41
2022/10/18 01:59:32;;;;;;;;;;;19.80;93.70;;;;;;5116844;28;19994;-41
2022/10/18 02:02:12;;;;;;;;;;;19.80;93.70;;;;;;5116490;28;20273;-41
2022/10/18 02:04:49;;;;;;;;;;;19.80;93.70;;;;;;5116769;28;19907;-41
2022/10/18 02:07:27;;;;;;;;;;;19.80;93.70;;;;;;5116349;28;19961;-41
2022/10/18 02:10:06;;;;;;;;;;;19.80;93.70;;;;;;5097997;28;20396;-41
2022/10/18 02:12:32;;;;;;;;;;;19.80;93.70;;;;;;5116713;28;20258;-41
2022/10/18 02:14:59;;;;;;;;;;;19.80;93.70;;;;;;5116686;28;19915;-41
2022/10/18 02:17:25;;;;;;;;;;;19.80;93.70;;;;;;5116589;28;20013;-41
2022/10/18 02:19:52;;;;;;;;;;;19.80;93.70;;;;;;5116605;28;19904;-41
2022/10/18 02:22:19;;;;;;;;;;;19.80;93.70;;;;;;5116429;28;19908;-41
2022/10/18 02:24:46;;;;;;;;;;;19.80;93.70;;;;;;5116061;28;20415;-41
2022/10/18 02:27:12;;;;;;;;;;;19.80;93.70;;;;;;5116413;28;19904;-41
2022/10/18 02:29:38;;;;;;;;;;;19.80;93.80;;;;;;5116112;28;20259;-41
2022/10/18 02:32:14;;;;;;;;;;;19.80;93.70;;;;;;5116230;28;20338;-41
2022/10/18 02:34:42;;;;;;;;;;;19.80;93.80;;;;;;5116160;28;19938;-40
2022/10/18 02:37:07;;;;;;;;;;;19.80;93.80;;;;;;5116100;28;19923;-40
2022/10/18 02:39:38;;;;;;;;;;;19.80;93.80;;;;;;5116320;28;20242;-41
2022/10/18 02:42:07;;;;;;;;;;;19.80;93.80;;;;;;5115796;28;19955;-41
2022/10/18 02:44:33;;;;;;;;;;;19.80;93.80;;;;;;5115763;28;20320;-40
2022/10/18 02:46:59;;;;;;;;;;;19.80;93.80;;;;;;5115960;28;20007;-41
2022/10/18 02:49:24;;;;;;;;;;;19.80;93.80;;;;;;5115940;28;19946;-41
2022/10/18 02:51:50;;;;;;;;;;;19.80;93.80;;;;;;5115516;28;19907;-41
2022/10/18 02:54:15;;;;;;;;;;;19.80;93.80;;;;;;5116087;28;20331;-41
2022/10/18 02:56:41;;;;;;;;;;;19.80;93.80;;;;;;5115436;28;19912;-41
2022/10/18 02:59:07;;;;;;;;;;;19.80;93.80;;;;;;5115312;28;19911;-41
2022/10/18 03:01:33;;;;;;;;;;;19.80;93.80;;;;;;5115978;28;19908;-41
2022/10/18 03:03:58;;;;;;;;;;;19.80;93.80;;;;;;5114681;28;20006;-41
2022/10/18 03:06:24;;;;;;;;;;;19.80;93.80;;;;;;5114054;28;19998;-41
2022/10/18 03:08:49;;;;;;;;;;;19.80;93.80;;;;;;5115406;28;20364;-41
2022/10/18 03:11:15;;;;;;;;;;;19.80;93.80;;;;;;5115451;28;19904;-43
2022/10/18 03:13:40;;;;;;;;;;;19.80;93.80;;;;;;5095387;28;20254;-42
2022/10/18 03:16:06;;;;;;;;;;;19.80;93.80;;;;;;5113210;28;19912;-42
2022/10/18 03:18:31;;;;;;;;;;;19.80;93.80;;;;;;5113567;28;20350;-41
2022/10/18 03:20:57;;;;;;;;;;;19.80;93.80;;;;;;5112982;28;19914;-41
2022/10/18 03:23:22;;;;;;;;;;;19.80;93.80;;;;;;5111338;28;20295;-41
2022/10/18 03:25:48;;;;;;;;;;;19.80;93.80;;;;;;5115402;27;19949;-41
2022/10/18 03:28:13;;;;;;;;;;;19.80;93.90;;;;;;5113338;27;19908;-41
2022/10/18 03:30:38;;;;;;;;;;;19.80;93.90;;;;;;5112369;28;20381;-41
2022/10/18 03:33:05;;;;;;;;;;;19.80;93.90;;;;;;5113048;28;19915;-41
2022/10/18 03:35:30;;;;;;;;;;;19.80;93.80;;;;;;5112090;28;20292;-41
2022/10/18 03:37:56;;;;;;;;;;;19.80;93.80;;;;;;5112974;28;19908;-41
2022/10/18 03:40:21;;;;;;;;;;;19.80;93.80;;;;;;5113849;28;19908;-41
2022/10/18 03:42:47;;;;;;;;;;;19.80;93.80;;;;;;5115191;28;20362;-41
2022/10/18 03:45:12;;;;;;;;;;;19.80;93.90;;;;;;5113873;28;19912;-42
2022/10/18 03:47:37;;;;;;;;;;;19.80;93.90;;;;;;5113281;28;20256;-42
2022/10/18 03:50:03;;;;;;;;;;;19.80;93.90;;;;;;5113355;28;19908;-43
2022/10/18 03:52:29;;;;;;;;;;;19.80;93.80;;;;;;5113109;28;19908;-41
2022/10/18 03:54:54;;;;;;;;;;;19.80;93.80;;;;;;5113739;28;19908;-41
2022/10/18 03:57:20;;;;;;;;;;;19.80;93.80;;;;;;5112968;28;19920;-42
2022/10/18 03:59:47;;;;;;;;;;;19.80;93.80;;;;;;5113353;28;20010;-41
2022/10/18 04:02:13;;;;;;;;;;;19.80;93.90;;;;;;5113026;28;19908;-41
2022/10/18 04:04:38;;;;;;;;;;;19.80;93.80;;;;;;5115706;28;19911;-42
2022/10/18 04:07:03;;;;;;;;;;;19.80;93.80;;;;;;5113290;28;20413;-42
2022/10/18 04:09:29;;;;;;;;;;;19.80;93.90;;;;;;5113221;28;20343;-41
2022/10/18 04:11:54;;;;;;;;;;;19.80;93.80;;;;;;5111851;28;19908;-42
2022/10/18 04:14:20;;;;;;;;;;;19.80;93.90;;;;;;5112850;28;20361;-41
2022/10/18 04:16:46;;;;;;;;;;;19.80;93.90;;;;;;5113646;28;20411;-45
2022/10/18 04:19:12;;;;;;;;;;;19.80;93.90;;;;;;5112490;28;19912;-42
2022/10/18 04:21:38;;;;;;;;;;;19.80;93.90;;;;;;5112689;28;19916;-43
2022/10/18 04:24:03;;;;;;;;;;;19.80;93.80;;;;;;5112816;28;19911;-41
2022/10/18 04:26:29;;;;;;;;;;;19.80;93.90;;;;;;5112433;28;19987;-42
2022/10/18 04:28:54;;;;;;;;;;;19.80;93.90;;;;;;5112566;28;19908;-42
2022/10/18 04:31:20;;;;;;;;;;;19.80;93.90;;;;;;5112509;28;19908;-41
2022/10/18 04:33:45;;;;;;;;;;;19.80;93.90;;;;;;5114099;28;20011;-41
2022/10/18 04:36:10;;;;;;;;;;;19.80;93.90;;;;;;5113642;28;19922;-41
2022/10/18 04:38:36;;;;;;;;;;;19.80;93.90;;;;;;5114408;28;19908;-41
2022/10/18 04:41:02;;;;;;;;;;;19.80;93.90;;;;;;5114080;28;19952;-41
2022/10/18 04:43:27;;;;;;;;;;;19.80;93.90;;;;;;5095759;28;20271;-41
2022/10/18 04:45:53;;;;;;;;;;;19.80;93.90;;;;;;5113727;28;19931;-41
2022/10/18 04:48:19;;;;;;;;;;;19.80;93.90;;;;;;5114067;28;19914;-42
2022/10/18 04:50:47;;;;;;;;;;;19.80;93.90;;;;;;5114665;28;19908;-41
2022/10/18 04:53:12;;;;;;;;;;;19.80;93.90;;;;;;5117977;28;19915;-41
2022/10/18 04:55:38;;;;;;;;;;;19.80;93.90;;;;;;5117733;28;19916;-41
2022/10/18 04:58:03;;;;;;;;;;;19.80;93.90;;;;;;5117467;28;19965;-41
2022/10/18 05:00:28;;;;;;;;;;;19.80;93.80;;;;;;5117967;28;19908;-41
2022/10/18 05:02:57;;;;;;;;;;;19.70;93.80;;;;;;5117508;28;20006;-41
2022/10/18 05:05:23;;;;;;;;;;;19.80;93.80;;;;;;5117495;28;19969;-41
2022/10/18 05:07:48;;;;;;;;;;;19.80;93.90;;;;;;5117262;28;19920;-42
2022/10/18 05:10:13;;;;;;;;;;;19.70;93.90;;;;;;5117722;28;19985;-41
2022/10/18 05:12:39;;;;;;;;;;;19.80;93.90;;;;;;5117481;28;20373;-41
2022/10/18 05:15:05;;;;;;;;;;;19.70;93.80;;;;;;5117498;28;19907;-41
2022/10/18 05:17:30;;;;;;;;;;;19.80;93.90;;;;;;5099008;28;20567;-41
2022/10/18 05:19:56;;;;;;;;;;;19.70;93.80;;;;;;5098767;28;20286;-41
2022/10/18 05:22:21;;;;;;;;;;;19.70;93.80;;;;;;5117009;28;19908;-41
2022/10/18 05:24:46;;;;;;;;;;;19.70;93.80;;;;;;5117302;28;20334;-41
2022/10/18 05:27:12;;;;;;;;;;;19.70;93.80;;;;;;5098559;28;20072;-41
2022/10/18 05:29:38;;;;;;;;;;;19.70;93.80;;;;;;5117083;28;19919;-42
2022/10/18 05:32:03;;;;;;;;;;;19.70;93.80;;;;;;5116909;28;19997;-41
2022/10/18 05:34:30;;;;;;;;;;;19.70;93.90;;;;;;5098747;28;20373;-41
2022/10/18 05:36:56;;;;;;;;;;;19.70;93.90;;;;;;5116566;28;20362;-42
2022/10/18 05:39:22;;;;;;;;;;;19.70;93.90;;;;;;5116743;28;19915;-41
2022/10/18 05:41:47;;;;;;;;;;;19.70;93.90;;;;;;5116888;28;20259;-41
2022/10/18 05:44:13;;;;;;;;;;;19.70;93.90;;;;;;5116381;28;19914;-41
2022/10/18 05:46:38;;;;;;;;;;;19.70;93.90;;;;;;5116670;28;19947;-41
2022/10/18 05:49:04;;;;;;;;;;;19.70;93.90;;;;;;5116133;28;19915;-41
2022/10/18 05:51:29;;;;;;;;;;;19.80;93.90;;;;;;5116830;28;20275;-41
2022/10/18 05:53:55;;;;;;;;;;;19.80;93.90;;;;;;5116895;28;19961;-41
2022/10/18 05:56:20;;;;;;;;;;;19.70;93.90;;;;;;5115893;28;19916;-41
2022/10/18 05:58:48;;;;;;;;;;;19.80;93.90;;;;;;5116428;28;19954;-41
2022/10/18 06:01:14;;;;;;;;;;;19.80;93.80;;;;;;5114030;28;19911;-41
2022/10/18 06:03:39;;;;;;;;;;;19.80;93.80;;;;;;5105043;28;19998;-41
2022/10/18 06:06:06;;;;;;;;;;;19.80;93.90;;;;;;5097656;28;19908;-41
2022/10/18 06:08:32;;;;;;;;;;;19.80;93.80;;;;;;5115973;28;19915;-41
2022/10/18 06:10:58;;;;;;;;;;;19.90;93.80;;;;;;5098212;28;20362;-41
2022/10/18 06:13:23;;;;;;;;;;;19.90;93.90;;;;;;5116273;28;20263;-41
2022/10/18 06:15:49;;;;;;;;;;;19.80;93.80;;;;;;5115586;28;20010;-42
2022/10/18 06:18:15;;;;;;;;;;;19.90;93.80;;;;;;5115889;28;19912;-41
2022/10/18 06:20:40;;;;;;;;;;;19.80;93.80;;;;;;5097610;28;19908;-41
2022/10/18 06:23:06;;;;;;;;;;;19.80;93.80;;;;;;5112245;28;20323;-41
2022/10/18 06:25:31;;;;;;;;;;;19.80;93.80;;;;;;5113125;27;19952;-46
2022/10/18 06:27:57;;;;;;;;;;;19.80;93.90;;;;;;5118900;27;20345;-43
2022/10/18 06:30:22;;;;;;;;;;;19.90;93.90;;;;;;5113245;27;19908;-43
2022/10/18 06:32:48;;;;;;;;;;;19.90;93.90;;;;;;5112616;28;19908;-42
2022/10/18 06:35:13;;;;;;;;;;;20.00;93.90;;;;;;5124936;27;19903;-42
2022/10/18 06:37:39;;;;;;;;;;;20.00;93.90;;;;;;5115191;28;20354;-40
2022/10/18 06:40:04;;;;;;;;;;;20.00;93.90;;;;;;5113408;28;20362;-41
2022/10/18 06:42:30;;;;;;;;;;;20.00;94.00;;;;;;5113135;28;19946;-45
2022/10/18 06:44:56;;;;;;;;;;;20.00;93.90;;;;;;5114752;28;19907;-41
2022/10/18 06:47:22;;;;;;;;;;;20.00;93.80;;;;;;5114593;28;19907;-42
2022/10/18 06:49:47;;;;;;;;;;;20.00;93.70;;;;;;5111581;28;19923;-42
2022/10/18 06:52:15;;;;;;;;;;;20.00;93.60;;;;;;5114302;28;19998;-41
2022/10/18 06:54:40;;;;;;;;;;;20.00;93.60;;;;;;5115215;28;20376;-44
2022/10/18 06:57:06;;;;;;;;;;;20.00;93.90;;;;;;5113321;28;19920;-46
2022/10/18 06:59:31;;;;;;;;;;;20.10;93.70;;;;;;5115381;28;20019;-48
2022/10/18 07:01:57;;;;;;;;;;;20.10;93.70;;;;;;5116747;27;19915;-41
2022/10/18 07:04:22;;;;;;;;;;;20.10;93.70;;;;;;5113599;28;19916;-41
2022/10/18 07:06:48;;;;;;;;;;;20.10;93.70;;;;;;5114903;28;19955;-41
2022/10/18 07:09:13;;;;;;;;;;;20.10;93.70;;;;;;5114818;28;19908;-42
2022/10/18 07:11:39;;;;;;;;;;;20.10;93.70;;;;;;5115245;28;19908;-41
2022/10/18 07:14:04;;;;;;;;;;;20.10;93.70;;;;;;5114112;28;19990;-41
2022/10/18 07:16:30;;;;;;;;;;;20.10;93.70;;;;;;5114863;28;20357;-41
2022/10/18 07:18:56;;;;;;;;;;;20.10;93.70;;;;;;5079624;28;19912;-41
2022/10/18 07:21:22;;;;;;;;;;;20.10;93.80;;;;;;5114747;28;20007;-41
2022/10/18 07:23:48;;;;;;;;;;;20.20;93.80;;;;;;5096717;28;20311;-42
2022/10/18 07:26:19;;;;;;;;;;;20.10;93.80;;;;;;5114539;28;19907;-41
2022/10/18 07:28:46;;;;;;;;;;;20.20;93.80;;;;;;5115192;28;20037;-42
2022/10/18 07:31:11;;;;;;;;;;;20.20;93.80;;;;;;5114813;28;20386;-40
2022/10/18 07:33:37;;;;;;;;;;;20.10;93.80;;;;;;5114719;28;19956;-40
2022/10/18 07:36:03;;;;;;;;;;;20.20;93.80;;;;;;5113205;28;19942;-49
2022/10/18 07:38:29;;;;;;;;;;;20.20;93.70;;;;;;5113925;28;19912;-42
2022/10/18 07:40:55;;;;;;;;;;;20.20;93.60;;;;;;5114687;28;19914;-42
2022/10/18 07:43:20;;;;;;;;;;;20.20;93.60;;;;;;5113932;28;19912;-43
2022/10/18 07:45:53;;;;;;;;;;;20.20;93.60;;;;;;5114191;28;20010;-42
2022/10/18 07:48:19;;;;;;;;;;;20.20;93.60;;;;;;5111709;28;19947;-42
2022/10/18 07:50:45;;;;;;;;;;;20.20;93.60;;;;;;5114363;28;19915;-42
2022/10/18 07:53:10;;;;;;;;;;;20.20;93.60;;;;;;5111498;28;19918;-42
2022/10/18 07:55:35;;;;;;;;;;;20.20;93.70;;;;;;5114106;28;19907;-42
2022/10/18 07:58:01;;;;;;;;;;;20.20;93.70;;;;;;5113377;28;19912;-45
2022/10/18 08:00:26;;;;;;;;;;;20.20;93.70;;;;;;5112457;28;19911;-41
2022/10/18 08:02:58;;;;;;;;;;;20.20;93.60;;;;;;5112265;28;19987;-42
2022/10/18 08:05:24;;;;;;;;;;;20.20;93.80;;;;;;5111915;28;19911;-41
2022/10/18 08:07:49;;;;;;;;;;;20.20;93.60;;;;;;5113063;28;19928;-41
2022/10/18 08:10:15;;;;;;;;;;;20.30;93.60;;;;;;5111805;28;19942;-43
2022/10/18 08:12:40;;;;;;;;;;;20.20;93.50;;;;;;5112585;28;20411;-42
2022/10/18 08:15:06;;;;;;;;;;;20.30;93.50;;;;;;5113944;28;20308;-42
2022/10/18 08:17:31;;;;;;;;;;;20.30;93.50;;;;;;5113064;28;19919;-41
2022/10/18 08:19:57;;;;;;;;;;;20.30;93.50;;;;;;5114062;28;19955;-41
2022/10/18 08:22:22;;;;;;;;;;;20.30;93.50;;;;;;5111064;28;19911;-41
2022/10/18 08:24:48;;;;;;;;;;;20.30;93.50;;;;;;5113622;28;19915;-41
2022/10/18 08:27:14;;;;;;;;;;;20.30;93.50;;;;;;5117313;28;19912;-41
2022/10/18 08:29:39;;;;;;;;;;;20.30;93.60;;;;;;5117148;28;19915;-41
2022/10/18 08:32:06;;;;;;;;;;;20.30;93.60;;;;;;5117681;28;19915;-43
2022/10/18 08:34:32;;;;;;;;;;;20.30;93.60;;;;;;5123020;27;20351;-41
2022/10/18 08:36:58;;;;;;;;;;;20.30;93.60;;;;;;5116803;28;19927;-40
2022/10/18 08:39:23;;;;;;;;;;;20.30;93.60;;;;;;5116983;28;19912;-42
2022/10/18 08:42:08;;;;;;;;;;;20.30;93.60;;;;;;5117038;28;20376;-41
2022/10/18 08:44:40;;;;;;;;;;;20.30;93.40;;;;;;5116425;28;19923;-41
2022/10/18 08:47:10;;;;;;;;;;;20.30;93.20;;;;;;5113638;28;20286;-42
2022/10/18 08:49:38;;;;;;;;;;;20.30;93.20;;;;;;5098284;28;19912;-46
2022/10/18 08:52:10;;;;;;;;;;;20.30;93.20;;;;;;5117067;28;20362;-47
2022/10/18 08:54:43;;;;;;;;;;;20.30;93.20;;;;;;5116556;28;19912;-48
2022/10/18 08:57:13;;;;;;;;;;;20.30;93.00;;;;;;5116899;28;19919;-48
2022/10/18 08:59:39;;;;;;;;;;;20.30;92.80;;;;;;5117473;28;20049;-49
2022/10/18 09:02:25;;;;;;;;;;;20.30;92.70;;;;;;5115279;28;19969;-52
2022/10/18 09:04:56;;;;;;;;;;;20.30;92.70;;;;;;5057058;28;19912;-46
2022/10/18 09:07:40;;;;;;;;;;;20.30;92.70;;;;;;5117549;28;19919;-48
2022/10/18 09:10:05;;;;;;;;;;;20.30;92.70;;;;;;5115784;28;19912;-49
2022/10/18 09:12:34;;;;;;;;;;;20.30;92.70;;;;;;5115415;28;20030;-49
2022/10/18 09:15:05;;;;;;;;;;;20.30;92.60;;;;;;5114200;28;20365;-47
2022/10/18 09:17:49;;;;;;;;;;;20.30;92.60;;;;;;5116302;28;20023;-46
2022/10/18 09:20:20;;;;;;;;;;;20.30;92.60;;;;;;5109814;28;19911;-45
2022/10/18 09:23:01;;;;;;;;;;;20.30;92.60;;;;;;5098593;28;20003;-46
2022/10/18 09:25:43;;;;;;;;;;;20.30;92.60;;;;;;5116168;28;19908;-44
2022/10/18 09:28:27;;;;;;;;;;;20.30;92.60;;;;;;5117294;28;19926;-47
2022/10/18 09:31:12;;;;;;;;;;;20.30;92.60;;;;;;5114451;28;19959;-46
2022/10/18 09:33:55;;;;;;;;;;;20.30;92.60;;;;;;5115279;28;19915;-44
2022/10/18 09:36:22;;;;;;;;;;;20.30;92.60;;;;;;5095538;28;19916;-46
2022/10/18 09:38:49;;;;;;;;;;;20.30;92.70;;;;;;5106448;28;19959;-50
2022/10/18 09:41:38;;;;;;;;;;;20.30;92.60;;;;;;5114369;28;19965;-50
2022/10/18 09:44:24;;;;;;;;;;;20.30;92.60;;;;;;5075700;28;19974;-49
2022/10/18 09:46:55;;;;;;;;;;;20.40;92.70;;;;;;5111201;28;19912;-47
2022/10/18 09:49:27;;;;;;;;;;;20.30;92.70;;;;;;5116705;28;19907;-48
2022/10/18 09:51:53;;;;;;;;;;;20.30;92.60;;;;;;5115463;28;19918;-45
2022/10/18 09:54:18;;;;;;;;;;;20.30;92.70;;;;;;5115984;28;19998;-47
2022/10/18 09:56:53;;;;;;;;;;;20.30;92.60;;;;;;5095639;28;19919;-43
2022/10/18 09:59:21;;;;;;;;;;;20.30;92.70;;;;;;5116312;28;19908;-46
2022/10/18 10:01:47;;;;;;;;;;;20.30;92.70;;;;;;5097245;28;19912;-45
2022/10/18 10:04:14;;;;;;;;;;;20.30;92.60;;;;;;5114396;28;19968;-45
2022/10/18 10:06:48;;;;;;;;;;;20.30;92.70;;;;;;5115009;28;19928;-46
2022/10/18 10:09:14;;;;;;;;;;;20.40;92.70;;;;;;5116447;28;19908;-41
2022/10/18 10:11:44;;;;;;;;;;;20.40;92.70;;;;;;5115039;28;19954;-45
2022/10/18 10:14:12;;;;;;;;;;;20.30;92.70;;;;;;5116233;28;19941;-48
2022/10/18 10:16:50;;;;;;;;;;;20.30;92.70;;;;;;5113044;28;19923;-42
2022/10/18 10:19:17;;;;;;;;;;;20.30;92.70;;;;;;5120231;27;19912;-44
2022/10/18 10:21:42;;;;;;;;;;;20.30;92.70;;;;;;5115463;28;19912;-52
2022/10/18 10:24:17;;;;;;;;;;;20.40;92.80;;;;;;5114247;28;19916;-51
2022/10/18 10:26:43;;;;;;;;;;;20.30;92.70;;;;;;5114377;28;20239;-55
2022/10/18 10:29:27;;;;;;;;;;;20.40;92.80;;;;;;5104029;28;19964;-52
2022/10/18 10:32:00;;;;;;;;;;;20.40;92.80;;;;;;5103816;28;21088;-55
2022/10/18 10:34:28;;;;;;;;;;;20.40;92.90;;;;;;5120783;27;19911;-55
2022/10/18 10:36:53;;;;;;;;;;;20.40;93.00;;;;;;5099478;28;19924;-53
2022/10/18 10:39:20;;;;;;;;;;;20.40;93.00;;;;;;5113632;28;19953;-54
2022/10/18 10:41:47;;;;;;;;;;;20.40;93.00;;;;;;5114364;28;19912;-50
2022/10/18 10:44:14;;;;;;;;;;;20.40;93.00;;;;;;5113255;28;19912;-51
2022/10/18 10:46:39;;;;;;;;;;;20.40;93.00;;;;;;5113832;28;19912;-56
2022/10/18 10:49:05;;;;;;;;;;;20.40;93.00;;;;;;5112254;28;19938;-50
2022/10/18 10:51:31;;;;;;;;;;;20.40;93.00;;;;;;5113755;28;20420;-55
2022/10/18 10:53:58;;;;;;;;;;;20.40;93.10;;;;;;5118767;27;20023;-48
2022/10/18 10:56:26;;;;;;;;;;;20.40;93.00;;;;;;5116341;27;20393;-51
2022/10/18 10:58:53;;;;;;;;;;;20.40;93.00;;;;;;5115381;28;19907;-53
2022/10/18 11:01:23;;;;;;;;;;;20.40;93.00;;;;;;5114948;28;20297;-50
2022/10/18 11:03:50;;;;;;;;;;;20.40;93.00;;;;;;5113200;28;19914;-52
2022/10/18 11:06:34;;;;;;;;;;;20.40;93.00;;;;;;5102575;28;19933;-51
2022/10/18 11:09:02;;;;;;;;;;;20.40;93.00;;;;;;5115370;28;19930;-55
2022/10/18 11:11:31;;;;;;;;;;;20.40;93.00;;;;;;5111266;28;20373;-55
2022/10/18 11:14:00;;;;;;;;;;;20.40;93.00;;;;;;5120609;27;20293;-56
2022/10/18 11:16:28;;;;;;;;;;;20.40;93.00;;;;;;5107833;28;19920;-52
2022/10/18 11:18:55;;;;;;;;;;;20.40;93.00;;;;;;5114926;28;19908;-41
2022/10/18 11:21:22;;;;;;;;;;;20.40;93.00;;;;;;5114316;28;19951;-41
2022/10/18 11:23:48;;;;;;;;;;;20.40;93.00;;;;;;5114624;28;19916;-39
2022/10/18 11:26:26;;;;;;;;;;;20.40;93.00;;;;;;5114271;28;20411;-39
2022/10/18 11:29:09;;;;;;;;;;;20.40;93.00;;;;;;5114964;28;19954;-40
2022/10/18 11:31:45;;;;;;;;;;;20.40;93.00;;;;;;5114677;28;19908;-41
2022/10/18 11:34:34;;;;;;;;;;;20.40;93.00;;;;;;5118670;27;19908;-45
2022/10/18 11:37:08;;;;;;;;;;;20.40;93.00;;;;;;5135216;27;19915;-46
2022/10/18 11:39:50;;;;;;;;;;;20.40;93.00;;;;;;5135288;27;19915;-45
2022/10/18 11:42:21;;;;;;;;;;;20.40;93.00;;;;;;5135628;27;20531;-44
2022/10/18 11:44:58;;;;;;;;;;;20.40;93.10;;;;;;5116884;27;19908;-43
2022/10/18 11:47:32;;;;;;;;;;;20.40;93.10;;;;;;5135046;27;20413;-44
2022/10/18 11:50:05;;;;;;;;;;;20.40;93.10;;;;;;5116445;27;19908;-43
2022/10/18 11:52:30;;;;;;;;;;;20.40;93.10;;;;;;5114364;28;19943;-42
2022/10/18 11:54:56;;;;;;;;;;;20.40;93.20;;;;;;5096357;28;20420;-44
2022/10/18 11:57:36;;;;;;;;;;;20.40;93.20;;;;;;5114273;28;20257;-43
2022/10/18 12:00:14;;;;;;;;;;;20.40;93.20;;;;;;5113830;28;20271;-43
2022/10/18 12:02:39;;;;;;;;;;;20.40;93.20;;;;;;5114274;28;19912;-42
2022/10/18 12:05:06;;;;;;;;;;;20.50;93.20;;;;;;5114351;28;20255;-43
2022/10/18 12:07:40;;;;;;;;;;;20.40;93.20;;;;;;5114380;28;19924;-42
2022/10/18 12:10:07;;;;;;;;;;;20.50;93.20;;;;;;5113917;28;19907;-43
2022/10/18 12:12:48;;;;;;;;;;;20.50;93.20;;;;;;5114052;28;19961;-44
2022/10/18 12:15:18;;;;;;;;;;;20.50;93.20;;;;;;5114763;28;19911;-42
2022/10/18 12:17:45;;;;;;;;;;;20.40;93.20;;;;;;5112054;28;19946;-53
2022/10/18 12:20:14;;;;;;;;;;;20.50;93.30;;;;;;5110801;28;19912;-42
2022/10/18 12:23:00;;;;;;;;;;;20.50;93.30;;;;;;5112265;28;19912;-42
2022/10/18 12:25:26;;;;;;;;;;;20.50;93.30;;;;;;5112030;28;19915;-41
2022/10/18 12:27:55;;;;;;;;;;;20.50;93.30;;;;;;5114016;28;19908;-40
2022/10/18 12:30:36;;;;;;;;;;;20.50;93.30;;;;;;5110042;28;20362;-41
2022/10/18 12:33:08;;;;;;;;;;;20.50;93.20;;;;;;5112157;28;19947;-41
2022/10/18 12:35:43;;;;;;;;;;;20.50;93.20;;;;;;5111703;28;19911;-41
2022/10/18 12:38:18;;;;;;;;;;;20.50;93.20;;;;;;5110984;28;19918;-43
2022/10/18 12:40:47;;;;;;;;;;;20.50;93.20;;;;;;5111111;28;19912;-41
2022/10/18 12:43:23;;;;;;;;;;;20.50;93.20;;;;;;5112235;28;19911;-41
2022/10/18 12:45:53;;;;;;;;;;;20.50;93.20;;;;;;5111135;28;19912;-41
2022/10/18 12:48:37;;;;;;;;;;;20.50;93.20;;;;;;5126259;28;19912;-40
2022/10/18 12:51:13;;;;;;;;;;;20.50;93.20;;;;;;5120997;28;20382;-44
2022/10/18 12:53:40;;;;;;;;;;;20.50;93.20;;;;;;5116377;28;20273;-41
2022/10/18 12:56:24;;;;;;;;;;;20.50;93.20;;;;;;5115826;28;20349;-41
2022/10/18 12:58:50;;;;;;;;;;;20.50;93.20;;;;;;5106418;28;19986;-41
2022/10/18 13:01:15;;;;;;;;;;;20.50;93.20;;;;;;5133372;28;20273;-42
2022/10/18 13:03:52;;;;;;;;;;;20.50;93.20;;;;;;5117779;28;19918;-40
2022/10/18 13:06:17;;;;;;;;;;;20.50;93.20;;;;;;5124283;28;19954;-41
2022/10/18 13:08:44;;;;;;;;;;;20.50;93.20;;;;;;5114417;28;20021;-40
2022/10/18 13:11:10;;;;;;;;;;;20.50;93.30;;;;;;5114354;28;19952;-40
2022/10/18 13:13:38;;;;;;;;;;;20.50;93.20;;;;;;5124984;27;19916;-39
2022/10/18 13:16:07;;;;;;;;;;;20.50;93.30;;;;;;5119245;27;20421;-40
2022/10/18 13:18:45;;;;;;;;;;;20.50;93.30;;;;;;5125670;27;19912;-40
2022/10/18 13:21:10;;;;;;;;;;;20.50;93.30;;;;;;5116880;27;19912;-40
2022/10/18 13:23:56;;;;;;;;;;;20.50;93.30;;;;;;5113495;27;19918;-41
2022/10/18 13:26:26;;;;;;;;;;;20.60;93.30;;;;;;5112501;28;20359;-41
2022/10/18 13:28:58;;;;;;;;;;;20.60;93.20;;;;;;5111962;28;19912;-41
2022/10/18 13:31:39;;;;;;;;;;;20.60;93.20;;;;;;5111369;28;19919;-40
2022/10/18 13:34:24;;;;;;;;;;;20.60;93.20;;;;;;5114834;27;20014;-41
2022/10/18 13:37:18;;;;;;;;;;;20.60;93.20;;;;;;5114686;28;19920;-40
2022/10/18 13:39:44;;;;;;;;;;;20.60;93.20;;;;;;5114173;28;19919;-41
2022/10/18 13:42:38;;;;;;;;;;;20.60;93.10;;;;;;5115588;28;19912;-42
2022/10/18 13:45:22;;;;;;;;;;;20.60;93.20;;;;;;5097986;28;19912;-41
2022/10/18 13:47:48;;;;;;;;;;;20.60;93.20;;;;;;5114607;28;19915;-41
2022/10/18 13:50:16;;;;;;;;;;;20.60;93.30;;;;;;5095566;28;19935;-40
2022/10/18 13:52:53;;;;;;;;;;;20.60;93.30;;;;;;5113765;28;20425;-40
2022/10/18 13:55:18;;;;;;;;;;;20.60;93.30;;;;;;5116364;28;19908;-40
2022/10/18 13:58:01;;;;;;;;;;;20.60;93.30;;;;;;5113321;28;19927;-40
2022/10/18 14:00:35;;;;;;;;;;;20.60;93.30;;;;;;5114365;28;19919;-42
2022/10/18 14:03:01;;;;;;;;;;;20.60;93.30;;;;;;5110661;28;20339;-49
2022/10/18 14:05:36;;;;;;;;;;;20.60;93.30;;;;;;5114126;28;19955;-41
2022/10/18 14:08:03;;;;;;;;;;;20.60;93.30;;;;;;5113079;28;19926;-45
2022/10/18 14:10:37;;;;;;;;;;;20.50;93.30;;;;;;5113996;28;19940;-44
2022/10/18 14:13:03;;;;;;;;;;;20.60;93.30;;;;;;5114078;27;19911;-41
2022/10/18 14:15:35;;;;;;;;;;;20.50;93.30;;;;;;5115554;28;19934;-44
2022/10/18 14:18:03;;;;;;;;;;;20.60;93.30;;;;;;5112740;28;19919;-42
2022/10/18 14:20:35;;;;;;;;;;;20.50;93.30;;;;;;5113425;28;19911;-45
2022/10/18 14:23:20;;;;;;;;;;;20.60;93.30;;;;;;5112206;28;19916;-41
2022/10/18 14:25:46;;;;;;;;;;;20.60;93.30;;;;;;5111912;28;19934;-40